Time;durP1;ratioP1;P1;durP2;ratioP2;P2;SDS_P1;SDS_P2;PMS_P1;PMS_P2;Temp;Humidity;BMP_temperature;BMP_pressure;BME280_temperature;BME280_humidity;BME280_pressure;Samples;Min_cycle;Max_cycle;Signal;HPM_P1;HPM_P2
2022/11/01 00:01:28;;;;;;;11.00;3.97;;;13.10;94.40;;;;;;5009850;28;20036;-64
2022/11/01 00:03:55;;;;;;;11.18;3.55;;;13.00;94.60;;;;;;5016350;28;20030;-65
2022/11/01 00:06:21;;;;;;;15.27;4.07;;;12.90;94.60;;;;;;5018372;28;20745;-66
2022/11/01 00:08:47;;;;;;;16.33;4.70;;;12.90;94.70;;;;;;5018010;28;20121;-67
2022/11/01 00:11:15;;;;;;;13.35;4.15;;;12.80;94.70;;;;;;5018877;28;20096;-67
2022/11/01 00:13:43;;;;;;;9.50;3.42;;;12.70;94.90;;;;;;5018170;28;20096;-66
2022/11/01 00:16:08;;;;;;;16.02;3.92;;;12.70;95.10;;;;;;5017269;28;20362;-66
2022/11/01 00:18:34;;;;;;;14.45;3.50;;;12.80;93.60;;;;;;5017021;28;20026;-66
2022/11/01 00:21:00;;;;;;;12.48;3.60;;;12.80;93.40;;;;;;5017332;28;20104;-66
2022/11/01 00:23:26;;;;;;;11.85;3.85;;;12.80;94.60;;;;;;5017203;28;20133;-67
2022/11/01 00:25:51;;;;;;;13.98;3.95;;;12.70;94.70;;;;;;5018287;28;20050;-67
2022/11/01 00:28:17;;;;;;;11.75;3.63;;;12.60;95.30;;;;;;5015903;28;20064;-66
2022/11/01 00:30:43;;;;;;;15.35;3.17;;;12.50;95.40;;;;;;5018325;28;20441;-67
2022/11/01 00:33:08;;;;;;;12.80;3.65;;;12.50;95.10;;;;;;5017237;28;20076;-66
2022/11/01 00:35:37;;;;;;;12.35;4.15;;;12.70;94.00;;;;;;5018253;28;20022;-67
2022/11/01 00:38:05;;;;;;;13.93;3.60;;;12.80;93.90;;;;;;5015645;28;20030;-66
2022/11/01 00:40:31;;;;;;;12.00;3.60;;;12.80;94.10;;;;;;5017971;28;20419;-66
2022/11/01 00:42:57;;;;;;;13.30;3.40;;;12.80;94.10;;;;;;5016887;28;20120;-66
2022/11/01 00:45:22;;;;;;;10.20;3.30;;;12.80;94.00;;;;;;5018089;28;20109;-66
2022/11/01 00:47:48;;;;;;;11.02;3.67;;;12.70;94.70;;;;;;5013014;28;20030;-67
2022/11/01 00:50:14;;;;;;;10.55;3.25;;;12.70;94.80;;;;;;5017155;28;20417;-65
2022/11/01 00:52:40;;;;;;;12.60;3.55;;;12.60;94.90;;;;;;5016704;28;20025;-66
2022/11/01 00:55:06;;;;;;;12.02;3.40;;;12.70;94.50;;;;;;5017139;28;20492;-66
2022/11/01 00:57:32;;;;;;;12.50;3.15;;;12.70;93.80;;;;;;5017200;28;20022;-66
2022/11/01 00:59:58;;;;;;;10.82;3.67;;;12.70;94.40;;;;;;5017669;28;20025;-65
2022/11/01 01:02:23;;;;;;;10.80;3.67;;;12.70;94.00;;;;;;5017158;28;20068;-65
2022/11/01 01:04:49;;;;;;;11.48;3.42;;;12.70;94.80;;;;;;5017634;28;20034;-66
2022/11/01 01:07:15;;;;;;;11.30;3.38;;;12.70;94.30;;;;;;5015611;28;20029;-65
2022/11/01 01:09:41;;;;;;;11.05;3.95;;;12.80;93.80;;;;;;5017614;28;20022;-67
2022/11/01 01:12:08;;;;;;;10.93;3.28;;;12.90;92.80;;;;;;5015193;28;20040;-65
2022/11/01 01:14:34;;;;;;;9.95;3.35;;;12.90;93.50;;;;;;5017290;28;20022;-66
2022/11/01 01:17:00;;;;;;;14.50;3.70;;;13.00;93.40;;;;;;5016384;28;20304;-66
2022/11/01 01:19:27;;;;;;;9.52;3.22;;;13.00;93.40;;;;;;5017609;28;20025;-65
2022/11/01 01:21:53;;;;;;;10.80;3.30;;;12.90;94.00;;;;;;5015164;28;20121;-66
2022/11/01 01:24:19;;;;;;;15.00;4.00;;;12.90;93.70;;;;;;5016920;28;20105;-65
2022/11/01 01:26:44;;;;;;;11.80;4.25;;;12.90;93.70;;;;;;5016283;28;20054;-68
2022/11/01 01:29:10;;;;;;;17.70;4.72;;;12.90;93.70;;;;;;5017068;28;20014;-66
2022/11/01 01:31:35;;;;;;;7.93;3.13;;;12.90;94.00;;;;;;5016126;28;20095;-66
2022/11/01 01:34:01;;;;;;;10.10;3.30;;;13.00;94.00;;;;;;5017203;28;20026;-67
2022/11/01 01:36:27;;;;;;;12.13;3.92;;;13.10;93.70;;;;;;5015222;28;20310;-66
2022/11/01 01:38:52;;;;;;;11.35;3.40;;;13.00;93.80;;;;;;5017204;28;20423;-66
2022/11/01 01:44:41;;;;;;;10.25;3.47;;;13.00;94.20;;;;;;5016466;28;20084;-65
2022/11/01 01:47:14;;;;;;;14.85;3.70;;;12.90;94.40;;;;;;5016205;28;20104;-65
2022/11/01 01:49:40;;;;;;;10.32;3.53;;;12.90;94.60;;;;;;5016861;28;20097;-65
2022/11/01 01:52:06;;;;;;;11.43;3.35;;;12.90;94.10;;;;;;5014630;28;20159;-66
2022/11/01 01:54:32;;;;;;;10.27;4.03;;;13.00;93.70;;;;;;5016737;28;20056;-66
2022/11/01 01:56:58;;;;;;;12.65;3.78;;;13.20;92.60;;;;;;5015264;28;20419;-66
2022/11/01 01:59:24;;;;;;;9.88;3.40;;;13.30;92.60;;;;;;5016054;28;20036;-66
2022/11/01 02:01:50;;;;;;;11.63;3.75;;;13.40;92.20;;;;;;5015717;28;20279;-66
2022/11/01 02:04:32;;;;;;;12.60;3.70;;;13.40;92.30;;;;;;5015152;28;20032;-66
2022/11/01 02:06:58;;;;;;;10.18;4.07;;;13.40;92.60;;;;;;5013690;28;20415;-67
2022/11/01 02:09:24;;;;;;;7.93;3.15;;;13.40;92.70;;;;;;5014664;28;20061;-65
2022/11/01 02:11:50;;;;;;;12.40;3.60;;;13.40;92.80;;;;;;5015679;28;20095;-65
2022/11/01 02:14:17;;;;;;;8.85;3.35;;;13.40;92.90;;;;;;5015570;28;20034;-66
2022/11/01 02:17:11;;;;;;;16.40;4.57;;;13.50;92.90;;;;;;5015418;28;20319;-66
2022/11/01 02:19:55;;;;;;;12.95;4.47;;;13.50;92.80;;;;;;5015376;28;20041;-65
2022/11/01 02:22:36;;;;;;;;;;;13.50;93.50;;;;;;5014477;28;20040;-66
2022/11/01 02:25:23;;;;;;;15.68;5.72;;;13.40;93.70;;;;;;5015482;28;19925;-66
2022/11/01 02:28:03;;;;;;;12.32;3.88;;;13.40;93.90;;;;;;5016081;28;20493;-66
2022/11/01 02:30:42;;;;;;;14.82;4.53;;;13.40;93.60;;;;;;5014489;28;20026;-67
2022/11/01 02:33:31;;;;;;;11.20;4.82;;;13.50;93.40;;;;;;5011666;28;20030;-65
2022/11/01 02:36:29;;;;;;;11.20;4.43;;;13.50;93.70;;;;;;5012417;28;20026;-66
2022/11/01 02:39:03;;;;;;;11.95;3.85;;;13.40;94.20;;;;;;5007149;28;20045;-67
2022/11/01 02:41:38;;;;;;;10.25;3.63;;;13.40;94.20;;;;;;5016055;28;20083;-66
2022/11/01 02:44:11;;;;;;;11.40;3.78;;;13.30;93.80;;;;;;5014935;28;20116;-66
2022/11/01 02:49:37;;;;;;;14.18;3.95;;;13.40;93.40;;;;;;5014864;28;20084;-66
2022/11/01 02:52:06;;;;;;;11.60;3.63;;;13.40;93.40;;;;;;5013954;28;20022;-67
2022/11/01 02:54:37;;;;;;;9.95;4.13;;;13.40;93.80;;;;;;5015691;28;20030;-66
2022/11/01 02:57:13;;;;;;;13.93;4.10;;;13.40;94.10;;;;;;5011287;28;20087;-66
2022/11/01 02:59:47;;;;;;;11.55;5.00;;;13.20;94.70;;;;;;5012429;28;20038;-66
2022/11/01 03:02:38;;;;;;;11.80;4.88;;;13.00;95.20;;;;;;5014901;28;20026;-65
2022/11/01 03:05:27;;;;;;;11.82;3.97;;;12.90;95.40;;;;;;5015463;28;20014;-66
2022/11/01 03:08:12;;;;;;;11.80;4.10;;;12.90;95.80;;;;;;5006464;28;20426;-64
2022/11/01 03:11:10;;;;;;;11.93;3.95;;;13.00;95.00;;;;;;5014717;28;20472;-65
2022/11/01 03:13:44;;;;;;;11.65;3.80;;;13.10;93.80;;;;;;5006652;28;20038;-65
2022/11/01 03:16:16;;;;;;;11.07;3.70;;;13.20;93.20;;;;;;5015514;28;20057;-65
2022/11/01 03:19:02;;;;;;;18.83;4.70;;;13.30;93.80;;;;;;5014436;28;20033;-65
2022/11/01 03:21:33;;;;;;;11.32;4.15;;;13.40;93.10;;;;;;5013931;28;20048;-65
2022/11/01 03:24:13;;;;;;;11.88;4.38;;;13.60;91.50;;;;;;5014613;28;20028;-67
2022/11/01 03:26:41;;;;;;;14.93;4.97;;;13.70;92.80;;;;;;5014697;28;20121;-65
2022/11/01 03:29:09;;;;;;;12.50;4.18;;;13.70;91.80;;;;;;5014399;28;20418;-66
2022/11/01 03:31:38;;;;;;;9.55;4.10;;;13.80;91.80;;;;;;5015219;28;20041;-65
2022/11/01 03:34:17;;;;;;;12.45;4.00;;;13.80;92.40;;;;;;5014186;28;20414;-65
2022/11/01 03:36:50;;;;;;;13.40;4.20;;;13.80;91.30;;;;;;5013618;28;20063;-66
2022/11/01 03:39:34;;;;;;;11.50;4.40;;;14.00;91.60;;;;;;5014400;28;20410;-66
2022/11/01 03:42:13;;;;;;;16.48;4.57;;;14.00;90.80;;;;;;5012991;28;20048;-66
2022/11/01 03:44:46;;;;;;;11.95;4.55;;;14.20;90.40;;;;;;5013696;28;20040;-67
2022/11/01 03:47:14;;;;;;;11.45;4.32;;;14.40;89.90;;;;;;5015553;28;20017;-65
2022/11/01 03:49:45;;;;;;;13.52;4.60;;;14.50;89.60;;;;;;5013525;28;20026;-65
2022/11/01 03:52:11;;;;;;;15.23;4.40;;;14.60;89.30;;;;;;5013983;28;20409;-66
2022/11/01 03:54:38;;;;;;;15.93;4.00;;;14.60;89.50;;;;;;5015075;28;20084;-66
2022/11/01 03:57:04;;;;;;;13.32;4.18;;;14.50;90.00;;;;;;5015611;28;20449;-66
2022/11/01 03:59:29;;;;;;;11.15;4.20;;;14.40;90.30;;;;;;5014008;28;20026;-66
2022/11/01 04:01:58;;;;;;;16.00;4.85;;;14.40;89.40;;;;;;5014983;28;20088;-66
2022/11/01 04:04:28;;;;;;;15.25;4.97;;;14.60;89.10;;;;;;5014378;28;20485;-66
2022/11/01 04:06:57;;;;;;;13.02;4.57;;;14.70;89.00;;;;;;5013909;28;20419;-66
2022/11/01 04:09:23;;;;;;;10.70;3.83;;;14.70;89.50;;;;;;5014824;28;20091;-66
2022/11/01 04:11:49;;;;;;;16.85;4.78;;;14.70;90.00;;;;;;5015307;28;20026;-66
2022/11/01 04:22:31;;;;;;;15.88;3.97;;;15.50;89.70;;;;;;5009770;28;20064;-65
2022/11/01 04:24:59;;;;;;;12.80;3.65;;;15.60;89.20;;;;;;5015051;28;20042;-66
2022/11/01 04:27:25;;;;;;;11.95;3.45;;;15.80;88.80;;;;;;5014568;28;20048;-66
2022/11/01 04:29:50;;;;;;;8.60;3.60;;;15.80;88.80;;;;;;5014800;28;20105;-66
2022/11/01 04:32:19;;;;;;;7.65;3.17;;;15.70;89.20;;;;;;5015205;28;20022;-65
2022/11/01 04:34:44;;;;;;;11.88;3.63;;;15.80;89.00;;;;;;5014707;28;20049;-65
2022/11/01 04:37:10;;;;;;;11.10;2.88;;;15.80;88.90;;;;;;5013095;28;20326;-65
2022/11/01 04:39:36;;;;;;;10.75;3.38;;;15.90;88.90;;;;;;5013560;28;20058;-65
2022/11/01 04:42:02;;;;;;;9.50;3.17;;;15.90;89.00;;;;;;5015374;28;20069;-65
2022/11/01 04:44:27;;;;;;;8.98;2.85;;;15.80;89.10;;;;;;5014469;28;20026;-65
2022/11/01 04:46:53;;;;;;;8.23;2.40;;;15.90;89.00;;;;;;5014930;28;20095;-67
2022/11/01 04:49:19;;;;;;;9.85;3.40;;;15.90;89.10;;;;;;5017395;28;20030;-66
2022/11/01 04:51:44;;;;;;;7.65;2.70;;;15.80;89.30;;;;;;5016814;28;20108;-66
2022/11/01 04:54:13;;;;;;;9.25;3.03;;;15.80;89.50;;;;;;5017843;28;20033;-66
2022/11/01 04:56:41;;;;;;;8.52;2.75;;;15.80;89.50;;;;;;5018636;28;20384;-66
2022/11/01 04:59:07;;;;;;;10.23;3.00;;;15.80;89.70;;;;;;5017831;28;20026;-66
2022/11/01 05:01:36;;;;;;;11.85;2.97;;;15.70;89.80;;;;;;5018708;28;20022;-66
2022/11/01 05:04:02;;;;;;;7.13;2.70;;;15.70;90.00;;;;;;5017926;28;20030;-66
2022/11/01 05:06:29;;;;;;;8.73;2.72;;;15.70;90.20;;;;;;5015814;28;20068;-66
2022/11/01 05:08:54;;;;;;;7.88;3.50;;;15.60;90.60;;;;;;5017763;28;20033;-66
2022/11/01 05:11:24;;;;;;;10.85;3.25;;;15.50;91.10;;;;;;5018482;28;20017;-66
2022/11/01 05:13:50;;;;;;;10.77;3.10;;;15.30;91.50;;;;;;5018042;28;20411;-67
2022/11/01 05:16:16;;;;;;;9.00;2.95;;;15.30;91.90;;;;;;5018417;28;20026;-67
2022/11/01 05:18:42;;;;;;;9.05;3.00;;;15.20;91.90;;;;;;5017706;28;20044;-67
2022/11/01 05:21:08;;;;;;;9.20;3.03;;;15.20;92.10;;;;;;5018263;28;20034;-66
2022/11/01 05:23:34;;;;;;;10.65;3.00;;;15.10;92.30;;;;;;5019904;28;20117;-67
2022/11/01 05:25:59;;;;;;;8.55;2.78;;;15.10;92.50;;;;;;5018622;28;20149;-66
2022/11/01 05:28:25;;;;;;;10.50;3.67;;;15.10;92.70;;;;;;5031301;28;20482;-67
2022/11/01 05:30:50;;;;;;;10.90;3.38;;;15.00;93.00;;;;;;5020829;28;20109;-67
2022/11/01 05:33:16;;;;;;;9.05;3.22;;;14.90;93.20;;;;;;5019644;28;20057;-67
2022/11/01 05:35:42;;;;;;;8.18;2.65;;;14.90;93.50;;;;;;5016413;28;20034;-67
2022/11/01 05:38:08;;;;;;;9.93;3.40;;;14.80;93.90;;;;;;5031665;28;20029;-67
2022/11/01 05:40:34;;;;;;;6.43;2.03;;;14.70;94.30;;;;;;5018147;28;20343;-67
2022/11/01 05:43:00;;;;;;;8.73;2.28;;;14.80;94.30;;;;;;5026855;28;20034;-66
2022/11/01 05:45:26;;;;;;;7.53;2.33;;;15.00;94.10;;;;;;5022915;28;20022;-67
2022/11/01 05:47:51;;;;;;;3.90;1.70;;;15.20;93.50;;;;;;5025793;28;20030;-66
2022/11/01 05:50:17;;;;;;;7.10;2.00;;;15.20;93.40;;;;;;5022574;28;20054;-66
2022/11/01 05:52:43;;;;;;;8.07;1.92;;;15.30;93.30;;;;;;5017147;28;20209;-67
2022/11/01 05:55:09;;;;;;;5.47;1.85;;;15.20;93.50;;;;;;5024117;28;20036;-66
2022/11/01 05:57:35;;;;;;;6.80;2.00;;;15.20;93.80;;;;;;5018329;28;20061;-66
2022/11/01 06:00:01;;;;;;;5.18;1.70;;;15.10;93.90;;;;;;5020734;28;20410;-66
2022/11/01 06:02:30;;;;;;;6.18;1.80;;;15.10;94.10;;;;;;5017765;28;20184;-67
2022/11/01 06:04:56;;;;;;;4.60;2.13;;;15.10;94.20;;;;;;5017727;28;20040;-67
2022/11/01 06:07:21;;;;;;;6.10;1.70;;;15.00;94.50;;;;;;5031329;28;20025;-67
2022/11/01 06:09:47;;;;;;;4.25;1.60;;;15.00;94.70;;;;;;5023027;28;20083;-67
2022/11/01 06:12:13;;;;;;;5.85;1.73;;;15.00;94.60;;;;;;5026342;28;20105;-67
2022/11/01 06:14:38;;;;;;;5.90;2.22;;;15.00;94.80;;;;;;5014738;28;20022;-66
2022/11/01 06:17:04;;;;;;;5.78;1.77;;;14.90;94.90;;;;;;5018296;28;20037;-67
2022/11/01 06:19:30;;;;;;;4.55;1.88;;;14.90;95.20;;;;;;4997782;28;20026;-67
2022/11/01 06:21:55;;;;;;;7.20;1.98;;;14.80;95.50;;;;;;5007097;28;20411;-67
2022/11/01 06:24:21;;;;;;;4.45;1.55;;;14.70;95.80;;;;;;5017699;28;20050;-67
2022/11/01 06:26:47;;;;;;;5.78;1.88;;;14.70;95.90;;;;;;5029461;28;20318;-68
2022/11/01 06:29:12;;;;;;;4.38;1.40;;;14.80;95.80;;;;;;5037029;28;20025;-68
2022/11/01 06:31:38;;;;;;;4.78;1.60;;;14.70;96.20;;;;;;5020489;28;20030;-67
2022/11/01 06:34:04;;;;;;;6.95;1.60;;;14.60;96.40;;;;;;5017199;28;20382;-66
2022/11/01 06:36:29;;;;;;;5.70;1.77;;;14.50;96.70;;;;;;5014627;28;20107;-67
2022/11/01 06:38:55;;;;;;;5.68;1.80;;;14.40;97.10;;;;;;5025212;28;20061;-67
2022/11/01 06:41:20;;;;;;;6.55;2.03;;;14.30;97.60;;;;;;5017455;28;20026;-65
2022/11/01 06:43:49;;;;;;;5.53;1.85;;;14.20;97.80;;;;;;5017183;28;20037;-65
2022/11/01 06:46:15;;;;;;;6.13;1.90;;;14.10;98.00;;;;;;5030102;28;20320;-65
2022/11/01 06:48:40;;;;;;;5.65;1.95;;;14.10;98.00;;;;;;5019780;28;20022;-65
2022/11/01 06:51:06;;;;;;;6.43;2.58;;;14.10;97.90;;;;;;5017933;28;20033;-67
2022/11/01 06:53:31;;;;;;;6.40;3.08;;;14.20;97.90;;;;;;5022683;28;20081;-67
2022/11/01 06:55:58;;;;;;;6.32;2.65;;;14.20;97.90;;;;;;5020279;28;20084;-67
2022/11/01 06:58:24;;;;;;;4.22;1.40;;;14.20;98.00;;;;;;5021664;28;20026;-67
2022/11/01 07:00:50;;;;;;;4.25;1.42;;;14.30;97.80;;;;;;5024016;28;20133;-67
2022/11/01 07:03:15;;;;;;;2.42;1.05;;;14.40;97.70;;;;;;5017964;28;20030;-67
2022/11/01 07:05:41;;;;;;;3.60;1.15;;;14.50;97.40;;;;;;5015998;28;20105;-67
2022/11/01 07:08:09;;;;;;;3.03;1.30;;;14.50;97.50;;;;;;5014582;28;20375;-66
2022/11/01 07:10:41;;;;;;;5.07;1.30;;;14.50;97.60;;;;;;5014897;28;20018;-67
2022/11/01 07:13:10;;;;;;;5.10;1.20;;;14.40;97.80;;;;;;5024567;28;20029;-67
2022/11/01 07:15:36;;;;;;;4.97;1.45;;;14.40;97.80;;;;;;5020490;28;20124;-67
2022/11/01 07:18:04;;;;;;;4.47;2.25;;;14.40;98.00;;;;;;5018702;28;20486;-68
2022/11/01 07:20:35;;;;;;;4.40;1.67;;;14.30;98.00;;;;;;5022933;28;20087;-67
2022/11/01 07:23:02;;;;;;;3.15;1.20;;;14.40;98.00;;;;;;5022423;28;20491;-67
2022/11/01 07:25:29;;;;;;;3.72;1.20;;;14.40;98.00;;;;;;5021465;28;20034;-67
2022/11/01 07:27:55;;;;;;;3.28;1.13;;;14.50;97.90;;;;;;5027395;28;20046;-66
2022/11/01 07:30:21;;;;;;;4.43;1.10;;;14.50;97.90;;;;;;5015672;28;20054;-65
2022/11/01 07:32:47;;;;;;;4.10;1.20;;;14.60;97.60;;;;;;5014335;28;20026;-65
2022/11/01 07:35:13;;;;;;;4.65;2.05;;;14.60;97.70;;;;;;4998764;28;20088;-66
2022/11/01 07:37:39;;;;;;;3.47;1.40;;;14.60;97.80;;;;;;5003175;28;20108;-66
2022/11/01 07:40:05;;;;;;;2.40;1.10;;;14.60;97.90;;;;;;5017208;28;20045;-66
2022/11/01 07:42:31;;;;;;;3.85;1.30;;;14.70;97.70;;;;;;5032235;28;20037;-67
2022/11/01 07:44:56;;;;;;;2.92;1.30;;;14.80;97.70;;;;;;5019366;28;20073;-68
2022/11/01 07:47:25;;;;;;;2.40;0.90;;;14.90;97.50;;;;;;5015461;28;20018;-67
2022/11/01 07:49:50;;;;;;;2.22;1.00;;;14.90;97.20;;;;;;5013398;28;20053;-67
2022/11/01 07:52:16;;;;;;;4.70;1.15;;;15.00;97.20;;;;;;5029226;28;20477;-67
2022/11/01 07:54:41;;;;;;;2.30;0.93;;;15.20;97.00;;;;;;5027928;28;20491;-67
2022/11/01 07:57:08;;;;;;;2.03;0.90;;;15.20;96.40;;;;;;5022756;28;20490;-67
2022/11/01 07:59:34;;;;;;;3.13;1.10;;;15.20;96.30;;;;;;5015899;28;20172;-67
2022/11/01 08:02:00;;;;;;;5.13;1.20;;;15.20;96.40;;;;;;5013653;28;20109;-67
2022/11/01 08:04:25;;;;;;;2.35;0.90;;;15.30;96.10;;;;;;5016796;28;20073;-67
2022/11/01 08:06:51;;;;;;;1.42;0.82;;;15.30;95.50;;;;;;5014972;28;20022;-67
2022/11/01 08:09:17;;;;;;;2.03;0.70;;;15.30;95.60;;;;;;5015586;28;20022;-67
2022/11/01 08:11:42;;;;;;;2.30;0.80;;;15.30;94.70;;;;;;5025641;28;20036;-67
2022/11/01 08:14:10;;;;;;;1.30;0.80;;;15.40;94.60;;;;;;5021942;28;20322;-68
2022/11/01 08:16:36;;;;;;;1.30;0.70;;;15.50;94.40;;;;;;5015843;28;20537;-67
2022/11/01 08:19:04;;;;;;;3.35;0.80;;;15.50;94.40;;;;;;5015684;28;20034;-67
2022/11/01 08:21:29;;;;;;;1.40;0.70;;;15.50;94.50;;;;;;5024724;28;20051;-67
2022/11/01 08:23:55;;;;;;;2.38;0.75;;;15.60;94.10;;;;;;5032540;28;20030;-67
2022/11/01 08:26:20;;;;;;;0.85;0.60;;;15.70;93.40;;;;;;5023324;28;20121;-67
2022/11/01 08:28:46;;;;;;;1.60;0.70;;;15.80;92.60;;;;;;5015662;28;20036;-67
2022/11/01 08:31:12;;;;;;;1.10;0.60;;;15.80;91.90;;;;;;5017878;28;20101;-67
2022/11/01 08:33:37;;;;;;;1.20;0.70;;;15.90;92.00;;;;;;5008374;28;20034;-67
2022/11/01 08:36:03;;;;;;;1.30;0.70;;;15.90;91.80;;;;;;5011007;28;20077;-65
2022/11/01 08:38:29;;;;;;;2.10;0.60;;;16.00;91.70;;;;;;5015944;28;20117;-68
2022/11/01 08:40:55;;;;;;;1.25;0.68;;;16.10;91.50;;;;;;5016951;28;20105;-67
2022/11/01 08:43:21;;;;;;;2.50;0.70;;;16.10;91.00;;;;;;5013461;28;21159;-67
2022/11/01 08:45:47;;;;;;;1.40;0.80;;;16.10;90.90;;;;;;5016563;28;20040;-67
2022/11/01 08:48:13;;;;;;;2.22;0.63;;;16.10;91.30;;;;;;5017079;28;20022;-66
2022/11/01 08:50:39;;;;;;;2.25;0.80;;;16.20;90.70;;;;;;5009508;28;20437;-66
2022/11/01 08:53:07;;;;;;;1.50;0.70;;;16.30;90.90;;;;;;5019064;28;20025;-67
2022/11/01 08:55:33;;;;;;;2.13;0.80;;;16.50;89.90;;;;;;5016837;28;20030;-66
2022/11/01 08:57:59;;;;;;;2.67;0.80;;;16.60;89.10;;;;;;5013586;28;20113;-65
2022/11/01 09:00:25;;;;;;;2.78;1.05;;;16.60;88.20;;;;;;5010574;28;20058;-67
2022/11/01 09:02:51;;;;;;;1.70;0.77;;;16.50;88.70;;;;;;5011792;28;20070;-66
2022/11/01 09:05:17;;;;;;;2.63;1.10;;;16.60;88.60;;;;;;5013926;28;20018;-67
2022/11/01 09:07:43;;;;;;;2.70;1.00;;;16.50;87.90;;;;;;5029514;28;20034;-67
2022/11/01 09:10:10;;;;;;;1.95;0.98;;;16.30;88.60;;;;;;5015860;28;20058;-66
2022/11/01 09:12:38;;;;;;;2.30;0.80;;;16.20;88.60;;;;;;5013681;28;20053;-67
2022/11/01 09:15:07;;;;;;;1.77;0.80;;;16.20;88.50;;;;;;5013488;28;20026;-66
2022/11/01 09:17:33;;;;;;;4.22;0.75;;;16.10;88.90;;;;;;5009101;28;20040;-66
2022/11/01 09:19:59;;;;;;;2.70;1.17;;;16.00;89.70;;;;;;5008135;28;20052;-66
2022/11/01 09:22:25;;;;;;;3.22;1.10;;;16.10;89.70;;;;;;5012918;28;20034;-66
2022/11/01 09:24:51;;;;;;;2.95;1.02;;;16.30;89.30;;;;;;5014569;28;20092;-67
2022/11/01 09:27:16;;;;;;;1.73;0.80;;;16.40;89.30;;;;;;5014009;28;20346;-67
2022/11/01 09:29:42;;;;;;;2.75;1.00;;;16.40;89.30;;;;;;5011442;28;20057;-67
2022/11/01 09:32:08;;;;;;;1.95;0.95;;;16.30;89.50;;;;;;5012640;28;20327;-67
2022/11/01 09:34:42;;;;;;;2.90;1.02;;;16.20;90.10;;;;;;5013986;28;20112;-66
2022/11/01 09:37:12;;;;;;;3.35;0.80;;;16.30;90.00;;;;;;5016959;28;20023;-67
2022/11/01 09:39:37;;;;;;;2.30;0.95;;;16.90;88.90;;;;;;5006421;28;20496;-67
2022/11/01 09:42:27;;;;;;;3.90;1.00;;;17.50;86.90;;;;;;5013776;28;20026;-68
2022/11/01 09:44:56;;;;;;;2.85;0.80;;;18.00;85.10;;;;;;5013736;28;20040;-67
2022/11/01 09:47:25;;;;;;;3.50;1.13;;;18.10;84.80;;;;;;5014083;28;20092;-67
2022/11/01 09:50:03;;;;;;;8.18;3.35;;;18.70;84.80;;;;;;5012345;28;20410;-67
2022/11/01 09:52:28;;;;;;;4.93;2.00;;;19.00;82.30;;;;;;5010407;28;20072;-65
2022/11/01 09:54:54;;;;;;;4.25;1.70;;;19.40;81.70;;;;;;5014721;28;20362;-67
2022/11/01 09:57:35;;;;;;;2.10;0.93;;;19.80;80.00;;;;;;5016968;28;20049;-68
2022/11/01 10:00:16;;;;;;;1.67;0.80;;;20.30;78.70;;;;;;5019852;28;20351;-66
2022/11/01 10:02:57;;;;;;;2.17;0.85;;;19.90;79.20;;;;;;5015649;28;20030;-67
2022/11/01 10:05:34;;;;;;;1.38;0.73;;;19.40;80.60;;;;;;5020826;28;20028;-66
2022/11/01 10:08:06;;;;;;;1.90;0.82;;;18.80;80.70;;;;;;5019979;28;20033;-66
2022/11/01 10:10:36;;;;;;;1.60;0.80;;;18.50;82.30;;;;;;5037775;28;20308;-67
2022/11/01 10:13:37;;;;;;;2.00;0.80;;;18.80;81.60;;;;;;5031408;28;20034;-67
2022/11/01 10:16:32;;;;;;;2.42;0.88;;;19.10;81.10;;;;;;5031338;28;20087;-67
2022/11/01 10:19:04;;;;;;;1.45;0.73;;;19.40;79.80;;;;;;5007146;28;20046;-66
2022/11/01 10:21:41;;;;;;;2.15;0.85;;;19.50;80.00;;;;;;5017329;28;20099;-66
2022/11/01 10:24:26;;;;;;;3.40;0.70;;;19.50;78.90;;;;;;5016675;28;20061;-66
2022/11/01 10:27:24;;;;;;;0.85;0.60;;;19.40;80.70;;;;;;5022916;28;20044;-66
2022/11/01 10:30:10;;;;;;;2.17;0.70;;;19.60;79.30;;;;;;5015111;28;20589;-65
2022/11/01 10:32:44;;;;;;;2.33;0.90;;;19.30;80.00;;;;;;5023716;28;20053;-66
2022/11/01 10:35:43;;;;;;;2.60;1.00;;;18.90;81.00;;;;;;5016369;28;20021;-67
2022/11/01 10:38:20;;;;;;;3.17;0.80;;;18.50;82.10;;;;;;5017293;28;20600;-67
2022/11/01 10:41:02;;;;;;;1.58;0.80;;;17.90;83.50;;;;;;5016931;28;20026;-66
2022/11/01 10:43:36;;;;;;;4.18;1.08;;;17.50;84.60;;;;;;4997415;28;20030;-67
2022/11/01 10:46:06;;;;;;;4.57;1.05;;;17.30;85.80;;;;;;5015812;28;20013;-67
2022/11/01 10:48:41;;;;;;;3.88;0.90;;;17.20;86.60;;;;;;5024204;28;20432;-67
2022/11/01 10:51:41;;;;;;;1.58;0.90;;;17.10;87.00;;;;;;5019599;28;20063;-66
2022/11/01 10:54:18;;;;;;;2.15;0.85;;;17.00;87.50;;;;;;5015131;28;20034;-67
2022/11/01 10:56:48;;;;;;;3.53;0.90;;;17.10;87.80;;;;;;5020001;28;20346;-67
2022/11/01 10:59:26;;;;;;;3.05;1.10;;;17.10;87.30;;;;;;5017205;28;20025;-66
2022/11/01 11:01:58;;;;;;;2.88;1.00;;;16.90;87.80;;;;;;5014679;28;20079;-67
2022/11/01 11:04:25;;;;;;;3.17;1.00;;;17.00;88.20;;;;;;5014427;28;20028;-67
2022/11/01 11:06:51;;;;;;;2.75;1.27;;;17.20;87.90;;;;;;5013978;28;20025;-67
2022/11/01 11:09:33;;;;;;;3.80;1.30;;;17.10;87.90;;;;;;5014670;28;20068;-67
2022/11/01 11:12:09;;;;;;;4.65;1.30;;;16.90;88.80;;;;;;5014648;28;20029;-67
2022/11/01 11:14:42;;;;;;;8.68;1.50;;;16.80;89.30;;;;;;5020741;28;20310;-66
2022/11/01 11:17:23;;;;;;;6.85;2.05;;;16.90;89.50;;;;;;5016245;28;20104;-67
2022/11/01 11:19:54;;;;;;;4.35;1.80;;;17.00;90.00;;;;;;5013977;28;20030;-67
2022/11/01 11:22:25;;;;;;;5.40;1.60;;;17.00;89.10;;;;;;5012086;28;20032;-67
2022/11/01 11:24:54;;;;;;;4.32;1.60;;;17.10;89.10;;;;;;5014289;28;20046;-67
2022/11/01 11:27:27;;;;;;;6.80;1.40;;;17.00;88.70;;;;;;5012570;28;20021;-68
2022/11/01 11:30:00;;;;;;;4.55;1.40;;;16.90;88.20;;;;;;5013636;28;20502;-66
2022/11/01 11:32:29;;;;;;;3.33;1.20;;;16.90;88.40;;;;;;5016995;28;20410;-67
2022/11/01 11:34:57;;;;;;;6.38;1.75;;;17.10;87.30;;;;;;5015749;28;20036;-67
2022/11/01 11:37:26;;;;;;;6.40;1.20;;;17.20;88.10;;;;;;5015873;28;20038;-67
2022/11/01 11:40:06;;;;;;;4.57;1.42;;;17.40;85.60;;;;;;5021865;28;20038;-67
2022/11/01 11:42:33;;;;;;;5.07;1.38;;;17.30;85.60;;;;;;5014778;28;20037;-67
2022/11/01 11:45:17;;;;;;;3.65;1.23;;;17.20;85.60;;;;;;5015817;28;20025;-67
2022/11/01 11:47:43;;;;;;;;;;;17.30;85.50;;;;;;5016431;28;20030;-67
2022/11/01 11:50:21;;;;;;;5.82;1.50;;;17.40;85.80;;;;;;5015933;28;19912;-67
2022/11/01 11:52:58;;;;;;;3.65;1.30;;;17.40;85.20;;;;;;5014198;28;20036;-67
2022/11/01 11:55:50;;;;;;;5.43;1.20;;;17.40;85.70;;;;;;5015440;28;20125;-67
2022/11/01 11:58:36;;;;;;;4.20;1.23;;;17.60;84.90;;;;;;5014168;28;20168;-67
2022/11/01 12:01:04;;;;;;;5.50;1.50;;;17.60;85.00;;;;;;5015047;28;20144;-67
2022/11/01 12:03:46;;;;;;;7.07;1.55;;;17.70;85.20;;;;;;5014970;28;20028;-66
2022/11/01 12:06:23;;;;;;;4.65;1.50;;;17.80;84.70;;;;;;5019917;28;20037;-67
2022/11/01 12:08:52;;;;;;;4.70;1.70;;;17.80;85.20;;;;;;5014066;28;20056;-67
2022/11/01 12:11:20;;;;;;;4.78;1.50;;;17.70;84.80;;;;;;5011341;28;20026;-68
2022/11/01 12:14:01;;;;;;;6.30;1.52;;;17.70;85.10;;;;;;4998664;28;20041;-67
2022/11/01 12:16:27;;;;;;;5.15;1.17;;;17.80;84.70;;;;;;5013886;28;20048;-66
2022/11/01 12:19:01;;;;;;;6.57;1.70;;;17.90;84.40;;;;;;5014326;28;20139;-66
2022/11/01 12:21:41;;;;;;;4.20;1.30;;;18.00;84.10;;;;;;5010151;28;20025;-67
2022/11/01 12:24:31;;;;;;;4.97;1.50;;;18.20;84.10;;;;;;5011882;28;20030;-66
2022/11/01 12:27:03;;;;;;;3.40;1.10;;;18.20;83.70;;;;;;5013600;28;20331;-66
2022/11/01 12:29:41;;;;;;;7.00;1.40;;;18.50;84.20;;;;;;5015105;28;20033;-66
2022/11/01 12:32:27;;;;;;;6.00;1.92;;;18.90;83.30;;;;;;5012806;28;20029;-67
2022/11/01 12:34:57;;;;;;;5.03;1.38;;;19.10;81.80;;;;;;5012453;28;20030;-67
2022/11/01 12:37:28;;;;;;;5.97;1.40;;;18.90;81.70;;;;;;5011450;28;20037;-65
2022/11/01 12:40:41;;;;;;;5.25;1.20;;;19.10;81.80;;;;;;5014517;28;20030;-66
2022/11/01 12:43:18;;;;;;;3.53;1.30;;;19.40;80.40;;;;;;5005681;28;20029;-67
2022/11/01 12:45:59;;;;;;;5.32;1.35;;;19.00;80.30;;;;;;5011391;28;20026;-66
2022/11/01 12:48:34;;;;;;;8.13;1.80;;;18.70;81.10;;;;;;5013096;28;20108;-67
2022/11/01 12:51:10;;;;;;;5.65;1.38;;;18.50;82.50;;;;;;5010107;28;20416;-66
2022/11/01 12:53:40;;;;;;;5.18;1.45;;;18.60;82.20;;;;;;4995777;28;20040;-66
2022/11/01 12:56:06;;;;;;;6.50;1.50;;;18.60;81.20;;;;;;5010326;28;20030;-66
2022/11/01 12:58:33;;;;;;;8.18;1.83;;;18.30;82.10;;;;;;5011753;28;20033;-66
2022/11/01 13:01:13;;;;;;;5.88;1.50;;;18.10;82.80;;;;;;5013227;28;20442;-67
2022/11/01 13:03:46;;;;;;;4.43;1.38;;;17.90;83.00;;;;;;5011759;28;20038;-67
2022/11/01 13:06:33;;;;;;;6.25;1.70;;;17.70;83.90;;;;;;5010912;28;20022;-67
2022/11/01 13:09:12;;;;;;;8.52;1.67;;;17.40;84.60;;;;;;5013939;28;20423;-66
2022/11/01 13:12:10;;;;;;;3.88;1.30;;;17.40;84.80;;;;;;5015261;28;20026;-66
2022/11/01 13:14:51;;;;;;;5.47;1.58;;;17.60;84.20;;;;;;5017167;28;20026;-66